Thunder radar more information blitzortung!


Radar de pluja more information rain snow radar


Visita la nostra xarxa de llocs de meteo:

Template documentation
and downloads

And another site



No particular awareness of the weather is required.    There are no Weather-warnings

Pagina Historial Weather Underground text

Diari Resum Setembre 11, 2017 Unitats:  Imperial    Mètric   Tant
« Previous Dia
SegĂźent Dia »
Diari Setmana Mensual Anual Personalitzada
  Maxima: Minima: Media:
Temperatura: TemperatureC °F 16.3 °F 25 °F
Punt de rosada: DewpointC °F 6.5 °F 11.6 °F
Humitat: Humidity % 31 % 45 %
Wind Speed: WindSpeedKMH mph 0.0 mph 8.8 mph
RĂ fegues de vent: WindSpeedGustKMH mph - -
Vent:- - SW
Pression baro: PressurehPa in 1007.0 in -
Precipitacions: 0.0 in    
Historical Graphs
 
 
Dades de taula per Setembre 11, 2017
Temps Temperatura Punt de rosada Pression baro Vent Wind Speed RĂ fegues de vent Humitat Rainfall Rate (Hourly)
TemperatureC °F DewpointC °F PressurehPa in Calm     Humidity % HourlyPrecipMM in
00:00 16.8 °F 6.6 °F 1009.0 in WNW 1.6 mph 3.2 mph 51 % 0.0 in
00:01 18.6 °F 8.6 °F 1010.0 in NNE 5.6 mph 5.6 mph 52 % 0.0 in
00:06 18.6 °F 8.6 °F 1010.0 in NNE 5.6 mph 5.6 mph 52 % 0.0 in
00:10 16.7 °F 6.5 °F 1009.0 in Calm   3.2 mph 51 % 0.0 in
00:20 16.7 °F 6.8 °F 1009.0 in WSW 1.6 mph 8.0 mph 52 % 0.0 in
00:30 16.7 °F 6.8 °F 1009.0 in WSW 3.2 mph 3.2 mph 52 % 0.0 in
00:40 16.6 °F 6.7 °F 1009.0 in WSW 1.6 mph 3.2 mph 52 % 0.0 in
00:50 16.8 °F 6.9 °F 1009.0 in West 3.2 mph 6.4 mph 52 % 0.0 in
01:00 17.0 °F 7.1 °F 1009.0 in West 3.2 mph 6.4 mph 52 % 0.0 in
01:10 17.0 °F 7.1 °F 1008.0 in West 3.2 mph 4.8 mph 52 % 0.0 in
01:20 16.9 °F 7.3 °F 1008.0 in West 3.2 mph 9.7 mph 53 % 0.0 in
01:30 16.8 °F 7.4 °F 1008.0 in West 3.2 mph 3.2 mph 54 % 0.0 in
01:40 16.9 °F 7.5 °F 1008.0 in WSW 1.6 mph 4.8 mph 54 % 0.0 in
01:50 16.7 °F 7.6 °F 1008.0 in WSW 1.6 mph 3.2 mph 55 % 0.0 in
02:00 16.6 °F 7.5 °F 1009.0 in WSW 1.6 mph 3.2 mph 55 % 0.0 in
02:10 16.3 °F 7.5 °F 1008.0 in WSW 1.6 mph 1.6 mph 56 % 0.0 in
02:20 16.4 °F 7.6 °F 1008.0 in North 3.2 mph 3.2 mph 56 % 0.0 in
02:30 16.6 °F 8.1 °F 1009.0 in WNW 1.6 mph 4.8 mph 57 % 0.0 in
02:40 16.6 °F 8.3 °F 1009.0 in Calm   6.4 mph 58 % 0.0 in
02:50 16.7 °F 8.4 °F 1009.0 in Calm   3.2 mph 58 % 0.0 in
03:00 16.8 °F 8.5 °F 1008.0 in SW 1.6 mph 3.2 mph 58 % 0.0 in
03:10 17.5 °F 8.9 °F 1008.0 in SE 1.6 mph 3.2 mph 57 % 0.0 in
03:20 17.8 °F 9.2 °F 1008.0 in NW 1.6 mph 3.2 mph 57 % 0.0 in
03:30 17.8 °F 9.2 °F 1008.0 in North 3.2 mph 4.8 mph 57 % 0.0 in
03:40 18.3 °F 9.6 °F 1009.0 in NNE 1.6 mph 3.2 mph 57 % 0.0 in
03:50 18.5 °F 9.8 °F 1009.0 in WNW 3.2 mph 9.7 mph 57 % 0.0 in
04:00 19.2 °F 10.4 °F 1009.0 in West 1.6 mph 4.8 mph 57 % 0.0 in
04:10 19.9 °F 10.8 °F 1009.0 in West 3.2 mph 4.8 mph 56 % 0.0 in
04:20 20.2 °F 10.9 °F 1009.0 in West 1.6 mph 3.2 mph 55 % 0.0 in
04:30 19.9 °F 10.6 °F 1008.0 in West 3.2 mph 8.0 mph 55 % 0.0 in
04:40 20.3 °F 10.9 °F 1008.0 in West 8.0 mph 8.0 mph 55 % 0.0 in
04:50 20.6 °F 11.2 °F 1008.0 in West 4.8 mph 8.0 mph 55 % 0.0 in
05:00 21.0 °F 11.3 °F 1008.0 in WSW 8.0 mph 9.7 mph 54 % 0.0 in
05:10 21.5 °F 11.8 °F 1008.0 in WSW 4.8 mph 8.0 mph 54 % 0.0 in
05:20 22.1 °F 12.1 °F 1008.0 in WSW 4.8 mph 4.8 mph 53 % 0.0 in
05:30 22.5 °F 12.2 °F 1008.0 in SW 4.8 mph 9.7 mph 52 % 0.0 in
05:35 22.6 °F 12.2 °F 1008.0 in WSW 8.0 mph 8.0 mph 52 % 0.0 in
10:35 22.6 °F 12.2 °F 1008.0 in West 7.4 mph 7.4 mph 52 % 0.0 in
10:40 23.2 °F 12.5 °F 1008.0 in WNW 5.6 mph 5.6 mph 51 % 0.0 in
10:45 23.2 °F 12.2 °F 1008.0 in West 14.8 mph 14.8 mph 50 % 0.0 in
10:50 23.2 °F 12.2 °F 1009.0 in South 11.1 mph 11.1 mph 50 % 0.0 in
10:55 24.0 °F 12.9 °F 1009.0 in West 5.6 mph 5.6 mph 50 % 0.0 in
11:00 24.3 °F 13.2 °F 1009.0 in West 7.4 mph 7.4 mph 50 % 0.0 in
11:05 24.3 °F 12.9 °F 1009.0 in North 9.3 mph 9.3 mph 49 % 0.0 in
11:10 24.3 °F 12.9 °F 1009.0 in West 9.3 mph 9.3 mph 49 % 0.0 in
11:15 24.6 °F 13.2 °F 1009.0 in WSW 9.3 mph 9.3 mph 49 % 0.0 in
11:20 24.9 °F 13.4 °F 1009.0 in WSW 7.4 mph 7.4 mph 49 % 0.0 in
11:25 25.3 °F 13.2 °F 1009.0 in West 6.1 mph 6.1 mph 47 % 0.0 in
11:30 25.3 °F 13.2 °F 1009.0 in WSW 7.4 mph 7.4 mph 47 % 0.0 in
11:35 25.4 °F 13.3 °F 1009.0 in SSW 16.7 mph 16.7 mph 47 % 0.0 in
11:40 25.5 °F 13.1 °F 1009.0 in WSW 9.3 mph 9.3 mph 46 % 0.0 in
11:45 25.6 °F 13.1 °F 1009.0 in West 13.0 mph 13.0 mph 46 % 0.0 in
11:50 25.5 °F 13.1 °F 1008.0 in West 16.7 mph 16.7 mph 46 % 0.0 in
11:55 26.1 °F 13.6 °F 1008.0 in SSE 13.0 mph 13.0 mph 46 % 0.0 in
12:00 26.4 °F 13.8 °F 1008.0 in WSW 13.0 mph 13.0 mph 46 % 0.0 in
12:05 26.4 °F 13.5 °F 1008.0 in West 11.9 mph 11.9 mph 45 % 0.0 in
12:10 26.3 °F 13.4 °F 1008.0 in SW 14.8 mph 14.8 mph 45 % 0.0 in
12:15 26.9 °F 13.9 °F 1008.0 in WSW 14.0 mph 14.0 mph 45 % 0.0 in
12:20 27.0 °F 13.3 °F 1008.0 in SSW 11.1 mph 11.1 mph 43 % 0.0 in
12:25 27.2 °F 13.6 °F 1008.0 in SSW 13.0 mph 13.0 mph 43 % 0.0 in
12:30 26.9 °F 13.3 °F 1008.0 in SW 13.0 mph 13.0 mph 43 % 0.0 in
12:35 27.0 °F 13.0 °F 1008.0 in ESE 16.7 mph 16.7 mph 42 % 0.0 in
12:40 27.2 °F 13.2 °F 1008.0 in West 16.7 mph 16.7 mph 42 % 0.0 in
12:45 27.4 °F 13.3 °F 1008.0 in West 9.5 mph 9.5 mph 42 % 0.0 in
12:50 27.6 °F 13.6 °F 1008.0 in NNW 14.8 mph 14.8 mph 42 % 0.0 in
12:51 27.6 °F 13.6 °F 1008.0 in SW 20.6 mph 20.6 mph 42 % 0.0 in
12:56 27.6 °F 13.2 °F 1008.0 in WNW 12.6 mph 12.6 mph 41 % 0.0 in
13:01 27.5 °F 13.1 °F 1008.0 in WSW 13.0 mph 13.0 mph 41 % 0.0 in
13:06 27.7 °F 13.3 °F 1008.0 in WNW 13.0 mph 13.0 mph 41 % 0.0 in
13:11 27.9 °F 13.4 °F 1008.0 in WSW 13.0 mph 13.0 mph 41 % 0.0 in
13:16 27.9 °F 13.4 °F 1008.0 in SW 14.8 mph 14.8 mph 41 % 0.0 in
13:21 28.3 °F 13.8 °F 1008.0 in West 11.1 mph 11.1 mph 41 % 0.0 in
13:26 28.0 °F 13.2 °F 1008.0 in WNW 16.7 mph 16.7 mph 40 % 0.0 in
13:31 28.4 °F 13.5 °F 1008.0 in WSW 14.8 mph 14.8 mph 40 % 0.0 in
13:36 28.7 °F 13.8 °F 1008.0 in North 9.3 mph 9.3 mph 40 % 0.0 in
13:41 28.9 °F 13.9 °F 1008.0 in SW 13.0 mph 13.0 mph 40 % 0.0 in
13:46 28.8 °F 13.8 °F 1008.0 in SSE 11.1 mph 11.1 mph 40 % 0.0 in
13:51 29.0 °F 13.7 °F 1007.0 in WSW 9.7 mph 9.7 mph 39 % 0.0 in
13:56 29.3 °F 13.9 °F 1007.0 in West 9.5 mph 9.5 mph 39 % 0.0 in
14:01 29.6 °F 13.8 °F 1007.0 in SW 18.5 mph 18.5 mph 38 % 0.0 in
14:06 29.4 °F 13.6 °F 1008.0 in WNW 13.0 mph 13.0 mph 38 % 0.0 in
14:11 29.4 °F 13.6 °F 1008.0 in SW 11.1 mph 11.1 mph 38 % 0.0 in
14:16 29.3 °F 13.5 °F 1008.0 in WSW 9.3 mph 9.3 mph 38 % 0.0 in
14:21 29.2 °F 13.4 °F 1007.0 in SW 9.3 mph 9.3 mph 38 % 0.0 in
14:26 29.0 °F 13.2 °F 1007.0 in WSW 5.6 mph 5.6 mph 38 % 0.0 in
14:32 28.8 °F 13.4 °F 1007.0 in WSW 9.3 mph 9.3 mph 39 % 0.0 in
14:37 28.8 °F 13.4 °F 1009.0 in SW 5.6 mph 5.6 mph 39 % 0.0 in
14:42 29.1 °F 13.3 °F 1009.0 in West 9.3 mph 9.3 mph 38 % 0.0 in
14:47 29.1 °F 13.3 °F 1009.0 in NE 5.6 mph 5.6 mph 38 % 0.0 in
14:52 29.4 °F 13.6 °F 1008.0 in WSW 5.0 mph 5.0 mph 38 % 0.0 in
14:57 29.8 °F 13.9 °F 1008.0 in NW 7.4 mph 7.4 mph 38 % 0.0 in
15:02 30.3 °F 14.0 °F 1008.0 in NNE 10.0 mph 10.0 mph 37 % 0.0 in
15:07 30.1 °F 13.4 °F 1008.0 in West 9.3 mph 9.3 mph 36 % 0.0 in
15:12 29.7 °F 13.1 °F 1008.0 in WNW 11.1 mph 11.1 mph 36 % 0.0 in
15:17 29.5 °F 12.8 °F 1008.0 in West 9.5 mph 9.5 mph 36 % 0.0 in
15:22 30.0 °F 12.9 °F 1008.0 in WNW 5.6 mph 5.6 mph 35 % 0.0 in
15:27 31.1 °F 13.4 °F 1008.0 in SW 7.4 mph 7.4 mph 34 % 0.0 in
15:32 31.0 °F 13.3 °F 1008.0 in West 9.3 mph 9.3 mph 34 % 0.0 in
15:37 30.5 °F 12.4 °F 1007.0 in WSW 13.0 mph 13.0 mph 33 % 0.0 in
15:42 29.9 °F 11.9 °F 1007.0 in WSW 9.3 mph 9.3 mph 33 % 0.0 in
15:47 29.8 °F 11.8 °F 1007.0 in WSW 7.4 mph 7.4 mph 33 % 0.0 in
15:52 29.6 °F 11.2 °F 1008.0 in NNW 13.0 mph 13.0 mph 32 % 0.0 in
15:57 30.5 °F 11.9 °F 1008.0 in WSW 13.0 mph 13.0 mph 32 % 0.0 in
16:02 30.6 °F 12.0 °F 1008.0 in WNW 11.1 mph 11.1 mph 32 % 0.0 in
16:07 30.6 °F 12.0 °F 1008.0 in West 11.1 mph 11.1 mph 32 % 0.0 in
16:12 30.3 °F 11.3 °F 1008.0 in West 11.1 mph 11.1 mph 31 % 0.0 in
16:17 28.9 °F 10.6 °F 1008.0 in ESE 12.6 mph 12.6 mph 32 % 0.0 in
16:22 29.2 °F 10.8 °F 1008.0 in South 9.3 mph 9.3 mph 32 % 0.0 in
16:27 27.5 °F 9.8 °F 1008.0 in ESE 16.7 mph 16.7 mph 33 % 0.0 in
16:32 27.0 °F 9.8 °F 1008.0 in North 8.7 mph 8.7 mph 34 % 0.0 in
16:37 27.0 °F 10.2 °F 1008.0 in East 11.1 mph 11.1 mph 35 % 0.0 in
16:42 26.6 °F 10.3 °F 1008.0 in ESE 12.2 mph 12.2 mph 36 % 0.0 in
16:47 26.4 °F 10.1 °F 1008.0 in ENE 7.4 mph 7.4 mph 36 % 0.0 in
16:52 27.5 °F 11.1 °F 1008.0 in WSW 7.4 mph 7.4 mph 36 % 0.0 in
16:57 27.9 °F 11.4 °F 1008.0 in SW 7.9 mph 7.9 mph 36 % 0.0 in
17:02 26.7 °F 10.4 °F 1008.0 in East 13.0 mph 13.0 mph 36 % 0.0 in
17:07 26.5 °F 10.6 °F 1007.0 in ESE 16.4 mph 16.4 mph 37 % 0.0 in
17:12 25.4 °F 10.1 °F 1007.0 in SW 18.5 mph 18.5 mph 38 % 0.0 in
17:17 25.7 °F 10.3 °F 1007.0 in ENE 9.5 mph 9.5 mph 38 % 0.0 in
17:22 25.6 °F 10.6 °F 1007.0 in SSE 11.1 mph 11.1 mph 39 % 0.0 in
17:27 25.2 °F 10.3 °F 1007.0 in ESE 14.8 mph 14.8 mph 39 % 0.0 in
17:32 25.4 °F 10.8 °F 1007.0 in NNE 9.3 mph 9.3 mph 40 % 0.0 in
17:37 25.5 °F 10.9 °F 1008.0 in NNW 6.9 mph 6.9 mph 40 % 0.0 in
17:42 26.1 °F 11.4 °F 1008.0 in West 9.3 mph 9.3 mph 40 % 0.0 in
17:47 26.5 °F 11.8 °F 1008.0 in WSW 11.9 mph 11.9 mph 40 % 0.0 in
17:52 27.9 °F 11.9 °F 1008.0 in NNW 16.7 mph 16.7 mph 37 % 0.0 in
17:57 28.4 °F 11.9 °F 1008.0 in WNW 13.7 mph 13.7 mph 36 % 0.0 in
18:02 28.8 °F 11.8 °F 1008.0 in WSW 16.7 mph 16.7 mph 35 % 0.0 in
18:07 29.0 °F 11.6 °F 1008.0 in West 6.1 mph 6.1 mph 34 % 0.0 in
18:12 27.6 °F 11.2 °F 1008.0 in WSW 11.1 mph 11.1 mph 36 % 0.0 in
18:17 28.5 °F 11.6 °F 1008.0 in ENE 3.7 mph 3.9 mph 35 % 0.0 in
18:22 27.7 °F 11.7 °F 1008.0 in ENE 11.1 mph 11.1 mph 37 % 0.0 in
18:27 27.9 °F 10.6 °F 1008.0 in SW 20.4 mph 20.4 mph 34 % 0.0 in
18:32 28.0 °F 10.7 °F 1008.0 in SW 11.9 mph 11.9 mph 34 % 0.0 in
18:37 28.0 °F 10.7 °F 1008.0 in SW 11.9 mph 11.9 mph 34 % 0.0 in
18:42 28.0 °F 10.7 °F 1008.0 in SW 11.9 mph 11.9 mph 34 % 0.0 in
18:47 28.0 °F 10.7 °F 1008.0 in SW 11.9 mph 11.9 mph 34 % 0.0 in
18:52 28.0 °F 10.7 °F 1008.0 in SW 11.9 mph 11.9 mph 34 % 0.0 in
18:57 28.0 °F 10.7 °F 1008.0 in SW 11.9 mph 11.9 mph 34 % 0.0 in
19:02 28.0 °F 10.7 °F 1008.0 in SW 11.9 mph 11.9 mph 34 % 0.0 in
19:07 28.0 °F 10.7 °F 1008.0 in SW 11.9 mph 11.9 mph 34 % 0.0 in
19:12 28.0 °F 10.7 °F 1008.0 in SW 11.9 mph 11.9 mph 34 % 0.0 in
19:17 28.0 °F 10.7 °F 1008.0 in SW 11.9 mph 11.9 mph 34 % 0.0 in
19:20 19.6 °F 15.1 °F 1010.0 in SW 1.6 mph 4.8 mph 75 % 0.0 in
19:22 28.0 °F 10.7 °F 1008.0 in SW 11.9 mph 11.9 mph 34 % 0.0 in
19:27 28.0 °F 10.7 °F 1008.0 in SW 11.9 mph 11.9 mph 34 % 0.0 in
19:30 19.5 °F 14.9 °F 1010.0 in NNE 3.2 mph 4.8 mph 75 % 0.0 in
19:32 28.0 °F 10.7 °F 1008.0 in SW 11.9 mph 11.9 mph 34 % 0.0 in
19:37 28.0 °F 10.7 °F 1008.0 in SW 11.9 mph 11.9 mph 34 % 0.0 in
19:40 19.5 °F 14.9 °F 1010.0 in NE 3.2 mph 4.8 mph 75 % 0.0 in
19:42 28.0 °F 10.7 °F 1008.0 in SW 11.9 mph 11.9 mph 34 % 0.0 in
19:43 28.0 °F 10.7 °F 1008.0 in SW 11.9 mph 11.9 mph 34 % 0.0 in
19:48 28.0 °F 10.7 °F 1008.0 in SW 11.9 mph 11.9 mph 34 % 0.0 in
19:50 19.4 °F 14.8 °F 1010.0 in Calm   3.2 mph 75 % 0.0 in
19:53 28.0 °F 10.7 °F 1008.0 in SW 11.9 mph 11.9 mph 34 % 0.0 in
19:58 28.0 °F 10.7 °F 1008.0 in SW 11.9 mph 11.9 mph 34 % 0.0 in
20:00 19.4 °F 14.8 °F 1010.0 in NNE 1.6 mph 1.6 mph 75 % 0.0 in
20:03 28.0 °F 10.7 °F 1008.0 in SW 11.9 mph 11.9 mph 34 % 0.0 in
20:08 28.0 °F 10.7 °F 1008.0 in SW 11.9 mph 11.9 mph 34 % 0.0 in
20:10 19.3 °F 14.9 °F 1010.0 in NNE 1.6 mph 3.2 mph 76 % 0.0 in
20:13 28.0 °F 10.7 °F 1008.0 in SW 11.9 mph 11.9 mph 34 % 0.0 in
20:18 28.0 °F 10.7 °F 1008.0 in SW 11.9 mph 11.9 mph 34 % 0.0 in
20:20 19.2 °F 14.9 °F 1010.0 in North 1.6 mph 3.2 mph 76 % 0.0 in
20:23 28.0 °F 10.7 °F 1008.0 in SW 11.9 mph 11.9 mph 34 % 0.0 in
20:28 28.0 °F 10.7 °F 1008.0 in SW 11.9 mph 11.9 mph 34 % 0.0 in
20:30 19.1 °F 14.8 °F 1010.0 in NNE 1.6 mph 3.2 mph 76 % 0.0 in
20:33 28.0 °F 10.7 °F 1008.0 in SW 11.9 mph 11.9 mph 34 % 0.0 in
20:38 28.0 °F 10.7 °F 1008.0 in SW 11.9 mph 11.9 mph 34 % 0.0 in
20:40 19.1 °F 14.8 °F 1010.0 in Calm   3.2 mph 76 % 0.0 in
20:43 28.0 °F 10.7 °F 1008.0 in SW 11.9 mph 11.9 mph 34 % 0.0 in
20:48 28.0 °F 10.7 °F 1008.0 in SW 11.9 mph 11.9 mph 34 % 0.0 in
20:50 19.0 °F 14.7 °F 1010.0 in Calm   1.6 mph 76 % 0.0 in
20:53 28.0 °F 10.7 °F 1008.0 in SW 11.9 mph 11.9 mph 34 % 0.0 in
20:58 28.0 °F 10.7 °F 1008.0 in SW 11.9 mph 11.9 mph 34 % 0.0 in
21:00 18.9 °F 15.0 °F 1010.7 in Calm   1.6 mph 78 % 0.0 in
21:03 28.0 °F 10.7 °F 1008.0 in SW 11.9 mph 11.9 mph 34 % 0.0 in
21:08 28.0 °F 10.7 °F 1008.0 in SW 11.9 mph 11.9 mph 34 % 0.0 in
21:10 18.9 °F 15.0 °F 1010.7 in Calm   1.6 mph 78 % 0.0 in
21:13 28.0 °F 10.7 °F 1008.0 in SW 11.9 mph 11.9 mph 34 % 0.0 in
21:18 28.0 °F 10.7 °F 1008.0 in SW 11.9 mph 11.9 mph 34 % 0.0 in
21:20 19.0 °F 14.7 °F 1010.7 in North 1.6 mph 3.2 mph 76 % 0.0 in
21:23 28.0 °F 10.7 °F 1008.0 in SW 11.9 mph 11.9 mph 34 % 0.0 in
21:28 28.0 °F 10.7 °F 1008.0 in SW 11.9 mph 11.9 mph 34 % 0.0 in
21:30 18.9 °F 15.0 °F 1010.0 in Calm     78 % 0.0 in
21:33 28.0 °F 10.7 °F 1008.0 in SW 11.9 mph 11.9 mph 34 % 0.0 in
21:38 28.0 °F 10.7 °F 1008.0 in SW 11.9 mph 11.9 mph 34 % 0.0 in
21:40 18.7 °F 14.8 °F 1010.7 in WNW 1.6 mph 3.2 mph 78 % 0.0 in
21:43 28.0 °F 10.7 °F 1008.0 in SW 11.9 mph 11.9 mph 34 % 0.0 in
21:48 28.0 °F 10.7 °F 1008.0 in SW 11.9 mph 11.9 mph 34 % 0.0 in
21:50 18.5 °F 14.6 °F 1010.7 in West 1.6 mph 3.2 mph 78 % 0.0 in
21:53 28.0 °F 10.7 °F 1008.0 in SW 11.9 mph 11.9 mph 34 % 0.0 in
21:58 28.0 °F 10.7 °F 1008.0 in SW 11.9 mph 11.9 mph 34 % 0.0 in
22:00 18.5 °F 14.6 °F 1010.7 in WSW 1.6 mph 1.6 mph 78 % 0.0 in
22:03 28.0 °F 10.7 °F 1008.0 in SW 11.9 mph 11.9 mph 34 % 0.0 in
22:08 28.0 °F 10.7 °F 1008.0 in SW 11.9 mph 11.9 mph 34 % 0.0 in
22:10 18.5 °F 14.6 °F 1010.7 in WSW 1.6 mph 1.6 mph 78 % 0.0 in
22:13 28.0 °F 10.7 °F 1008.0 in SW 11.9 mph 11.9 mph 34 % 0.0 in
22:18 28.0 °F 10.7 °F 1008.0 in SW 11.9 mph 11.9 mph 34 % 0.0 in
22:20 18.6 °F 14.9 °F 1010.7 in West 1.6 mph 3.2 mph 79 % 0.0 in
22:23 28.0 °F 10.7 °F 1008.0 in SW 11.9 mph 11.9 mph 34 % 0.0 in
22:28 28.0 °F 10.7 °F 1008.0 in SW 11.9 mph 11.9 mph 34 % 0.0 in
22:30 18.6 °F 15.1 °F 1010.7 in Calm   1.6 mph 80 % 0.0 in
22:33 28.0 °F 10.7 °F 1008.0 in SW 11.9 mph 11.9 mph 34 % 0.0 in
22:38 28.0 °F 10.7 °F 1008.0 in SW 11.9 mph 11.9 mph 34 % 0.0 in
22:40 18.5 °F 14.8 °F 1010.7 in Calm   1.6 mph 79 % 0.0 in
22:43 28.0 °F 10.7 °F 1008.0 in SW 11.9 mph 11.9 mph 34 % 0.0 in
22:48 28.0 °F 10.7 °F 1008.0 in SW 11.9 mph 11.9 mph 34 % 0.0 in
22:50 18.6 °F 15.1 °F 1010.7 in Calm     80 % 0.0 in
22:53 28.0 °F 10.7 °F 1008.0 in SW 11.9 mph 11.9 mph 34 % 0.0 in
22:58 28.0 °F 10.7 °F 1008.0 in SW 11.9 mph 11.9 mph 34 % 0.0 in
23:00 18.6 °F 15.1 °F 1010.7 in Calm   1.6 mph 80 % 0.0 in
23:03 28.0 °F 10.7 °F 1008.0 in SW 11.9 mph 11.9 mph 34 % 0.0 in
23:08 28.0 °F 10.7 °F 1008.0 in SW 11.9 mph 11.9 mph 34 % 0.0 in
23:10 18.5 °F 15.0 °F 1010.7 in Calm     80 % 0.0 in
23:13 28.0 °F 10.7 °F 1008.0 in SW 11.9 mph 11.9 mph 34 % 0.0 in
23:18 28.0 °F 10.7 °F 1008.0 in SW 11.9 mph 11.9 mph 34 % 0.0 in
23:20 18.3 °F 14.8 °F 1010.7 in Calm   1.6 mph 80 % 0.0 in
23:23 28.0 °F 10.7 °F 1008.0 in SW 11.9 mph 11.9 mph 34 % 0.0 in
23:28 28.0 °F 10.7 °F 1008.0 in SW 11.9 mph 11.9 mph 34 % 0.0 in
23:30 18.2 °F 14.9 °F 1010.7 in SW 1.6 mph 4.8 mph 81 % 0.0 in
23:33 28.0 °F 10.7 °F 1008.0 in SW 11.9 mph 11.9 mph 34 % 0.0 in
23:38 28.0 °F 10.7 °F 1008.0 in SW 11.9 mph 11.9 mph 34 % 0.0 in
23:40 17.9 °F 14.4 °F 1011.7 in SSW 1.6 mph 3.2 mph 80 % 0.0 in
23:43 28.0 °F 10.7 °F 1008.0 in SW 11.9 mph 11.9 mph 34 % 0.0 in
23:48 28.0 °F 10.7 °F 1008.0 in SW 11.9 mph 11.9 mph 34 % 0.0 in
23:50 17.8 °F 14.5 °F 1011.7 in WSW 1.6 mph 1.6 mph 81 % 0.0 in
23:53 28.0 °F 10.7 °F 1008.0 in SW 11.9 mph 11.9 mph 34 % 0.0 in
23:58 28.0 °F 10.7 °F 1008.0 in SW 11.9 mph 11.9 mph 34 % 0.0 in
Meteo Sesrovires
Elogis d' Weather Underground - 1.5 mb

Guio original per  Jim McMurry - jmcmurry@mwt.net Adaptat per a la plantilla per  Wim van der Kuil - Leuven-Template.eu

Trobareu la nostra informacio del temps tambe a:

Weather Underground

AWEKAS